Time;durP1;ratioP1;P1;durP2;ratioP2;P2;SDS_P1;SDS_P2;PMS_P1;PMS_P2;Temp;Humidity;BMP_temperature;BMP_pressure;BME280_temperature;BME280_humidity;BME280_pressure;Samples;Min_cycle;Max_cycle;Signal;HPM_P1;HPM_P2
2023/06/05 00:02:22;;;;;;;20.10;6.60;;;11.90;99.90;;;;;;5063414;28;20025;-69
2023/06/05 00:04:48;;;;;;;17.40;6.82;;;11.90;99.90;;;;;;5062900;28;20029;-68
2023/06/05 00:07:13;;;;;;;12.85;6.65;;;11.90;99.90;;;;;;5063496;28;20033;-68
2023/06/05 00:09:39;;;;;;;17.90;6.65;;;11.80;99.90;;;;;;5063226;28;20029;-69
2023/06/05 00:12:05;;;;;;;12.82;6.57;;;11.80;99.90;;;;;;5063020;28;20021;-69
2023/06/05 00:14:30;;;;;;;13.63;6.20;;;11.80;99.90;;;;;;5062955;28;20028;-68
2023/06/05 00:16:57;;;;;;;14.68;6.38;;;11.70;99.90;;;;;;5063257;28;20124;-68
2023/06/05 00:19:23;;;;;;;14.00;6.70;;;11.70;99.90;;;;;;5062868;28;20037;-68
2023/06/05 00:21:50;;;;;;;14.50;6.82;;;11.70;99.90;;;;;;5062923;28;20025;-69
2023/06/05 00:24:16;;;;;;;14.05;6.28;;;11.70;99.90;;;;;;5062732;28;20017;-68
2023/06/05 00:26:41;;;;;;;16.92;7.25;;;11.60;99.90;;;;;;5062314;28;20051;-67
2023/06/05 00:29:08;;;;;;;13.82;6.80;;;11.60;99.90;;;;;;5063161;28;20021;-69
2023/06/05 00:31:33;;;;;;;13.40;6.95;;;11.60;99.90;;;;;;5062701;28;20044;-69
2023/06/05 00:33:59;;;;;;;17.92;6.93;;;11.60;99.90;;;;;;5062717;28;20054;-67
2023/06/05 00:36:25;;;;;;;14.20;6.95;;;11.60;99.90;;;;;;5062778;28;20029;-67
2023/06/05 00:38:50;;;;;;;12.40;6.80;;;11.60;99.90;;;;;;5061433;28;20025;-68
2023/06/05 00:41:16;;;;;;;15.25;6.97;;;11.60;99.90;;;;;;5062347;28;20036;-67
2023/06/05 00:43:42;;;;;;;15.07;6.85;;;11.60;99.90;;;;;;5062618;28;20370;-68
2023/06/05 00:46:08;;;;;;;11.65;6.65;;;11.60;99.90;;;;;;5062468;28;20061;-68
2023/06/05 00:48:34;;;;;;;14.75;6.90;;;11.60;99.90;;;;;;5062007;28;20025;-69
2023/06/05 00:51:00;;;;;;;19.65;7.40;;;11.60;99.90;;;;;;5062596;28;20029;-68
2023/06/05 00:53:26;;;;;;;14.25;7.40;;;11.60;99.90;;;;;;5062491;28;20033;-68
2023/06/05 00:55:52;;;;;;;17.15;7.15;;;11.60;99.90;;;;;;5061605;28;20029;-70
2023/06/05 00:58:18;;;;;;;13.90;7.15;;;11.60;99.90;;;;;;5062432;28;20067;-68
2023/06/05 01:00:45;;;;;;;15.93;7.72;;;11.50;99.90;;;;;;5062198;28;20033;-68
2023/06/05 01:03:12;;;;;;;14.25;6.80;;;11.50;99.90;;;;;;5062037;28;20016;-68
2023/06/05 01:05:38;;;;;;;13.20;6.82;;;11.50;99.90;;;;;;5061918;28;20017;-69
2023/06/05 01:08:05;;;;;;;13.90;6.93;;;11.50;99.90;;;;;;5061774;28;20383;-68
2023/06/05 01:10:31;;;;;;;15.57;7.20;;;11.50;99.90;;;;;;5062236;28;20033;-69
2023/06/05 01:13:15;;;;;;;12.45;7.03;;;11.40;99.90;;;;;;5062583;28;20052;-68
2023/06/05 01:15:41;;;;;;;15.68;6.90;;;11.40;99.90;;;;;;5061331;28;20025;-68
2023/06/05 01:18:08;;;;;;;15.27;7.32;;;11.50;99.90;;;;;;5062000;28;20302;-67
2023/06/05 01:20:41;;;;;;;19.52;7.32;;;11.50;99.90;;;;;;5062193;28;20025;-69
2023/06/05 01:23:08;;;;;;;13.18;7.55;;;11.50;99.90;;;;;;5061587;28;20025;-69
2023/06/05 01:25:36;;;;;;;13.07;7.40;;;11.50;99.90;;;;;;5061833;28;20036;-67
2023/06/05 01:28:19;;;;;;;15.45;8.13;;;11.40;99.90;;;;;;5061571;28;20044;-68
2023/06/05 01:31:00;;;;;;;11.88;6.82;;;11.40;99.90;;;;;;5061991;28;20013;-68
2023/06/05 01:33:34;;;;;;;13.15;7.60;;;11.40;99.90;;;;;;5061656;28;20101;-68
2023/06/05 01:36:04;;;;;;;15.43;7.90;;;11.40;99.90;;;;;;5062127;28;20039;-67
2023/06/05 01:38:34;;;;;;;15.65;7.65;;;11.40;99.90;;;;;;5061837;28;20045;-68
2023/06/05 01:41:01;;;;;;;17.80;7.43;;;11.40;99.90;;;;;;5061626;28;20017;-68
2023/06/05 01:43:28;;;;;;;16.65;7.70;;;11.40;99.90;;;;;;5061077;28;20484;-69
2023/06/05 01:45:56;;;;;;;15.48;7.57;;;11.40;99.90;;;;;;5061576;28;20044;-68
2023/06/05 01:48:23;;;;;;;15.68;7.55;;;11.40;99.90;;;;;;5060966;28;20127;-67
2023/06/05 01:50:53;;;;;;;16.50;7.25;;;11.40;99.90;;;;;;5060052;28;20025;-69
2023/06/05 01:53:19;;;;;;;15.82;7.47;;;11.40;99.90;;;;;;5061236;28;20040;-67
2023/06/05 01:55:46;;;;;;;13.00;7.15;;;11.40;99.90;;;;;;5061296;28;20029;-69
2023/06/05 01:58:12;;;;;;;15.27;7.70;;;11.40;99.90;;;;;;5061310;28;20055;-68
2023/06/05 02:00:37;;;;;;;17.92;7.57;;;11.40;99.90;;;;;;5061692;28;20033;-68
2023/06/05 02:03:03;;;;;;;14.25;7.00;;;11.40;99.90;;;;;;5061585;28;20084;-69
2023/06/05 02:05:29;;;;;;;17.00;7.43;;;11.40;99.90;;;;;;5061279;28;20022;-69
2023/06/05 02:07:58;;;;;;;14.88;7.15;;;11.40;99.90;;;;;;5061617;28;20032;-68
2023/06/05 02:10:24;;;;;;;11.95;7.00;;;11.40;99.90;;;;;;5060752;28;20028;-69
2023/06/05 02:12:50;;;;;;;15.23;7.15;;;11.30;99.90;;;;;;5061286;28;20598;-69
2023/06/05 02:15:16;;;;;;;15.77;8.07;;;11.40;99.90;;;;;;5061324;28;20017;-68
2023/06/05 02:17:53;;;;;;;15.43;7.38;;;11.30;99.90;;;;;;5060832;28;20021;-67
2023/06/05 02:20:21;;;;;;;14.30;7.50;;;11.30;99.90;;;;;;5061521;28;20018;-69
2023/06/05 02:22:49;;;;;;;17.58;8.27;;;11.30;99.90;;;;;;5061154;28;20025;-68
2023/06/05 02:25:16;;;;;;;14.90;8.10;;;11.30;99.90;;;;;;5060439;28;20040;-68
2023/06/05 02:27:41;;;;;;;19.85;8.45;;;11.30;99.90;;;;;;5061030;28;20089;-67
2023/06/05 02:30:08;;;;;;;18.02;8.52;;;11.20;99.90;;;;;;5060834;28;20028;-68
2023/06/05 02:32:35;;;;;;;15.57;8.05;;;11.20;99.90;;;;;;5060957;28;20096;-69
2023/06/05 02:35:02;;;;;;;19.88;8.63;;;11.20;99.90;;;;;;5061113;28;20032;-68
2023/06/05 02:37:28;;;;;;;14.35;7.63;;;11.20;99.90;;;;;;5060877;28;20105;-68
2023/06/05 02:39:54;;;;;;;18.08;7.60;;;11.10;99.90;;;;;;5060929;28;20098;-68
2023/06/05 02:42:20;;;;;;;14.45;7.78;;;11.10;99.90;;;;;;5061176;28;20029;-67
2023/06/05 02:44:46;;;;;;;16.45;7.85;;;11.10;99.90;;;;;;5060744;28;20040;-68
2023/06/05 02:47:12;;;;;;;18.15;8.23;;;11.10;99.90;;;;;;5060242;28;20048;-69
2023/06/05 02:49:38;;;;;;;17.02;8.65;;;11.10;99.90;;;;;;5061034;28;20113;-67
2023/06/05 02:52:04;;;;;;;15.88;8.10;;;11.10;99.90;;;;;;5060179;28;20057;-69
2023/06/05 02:54:29;;;;;;;17.48;8.50;;;11.10;99.90;;;;;;5061282;28;20032;-68
2023/06/05 02:56:56;;;;;;;19.55;7.65;;;11.10;99.90;;;;;;5060734;28;20051;-68
2023/06/05 02:59:24;;;;;;;13.63;7.53;;;11.10;99.90;;;;;;5060829;28;20103;-67
2023/06/05 03:01:50;;;;;;;15.48;7.35;;;11.00;99.90;;;;;;5062024;28;20013;-67
2023/06/05 03:04:20;;;;;;;14.32;7.53;;;11.00;99.90;;;;;;5064377;28;20025;-68
2023/06/05 03:06:47;;;;;;;16.98;7.50;;;11.00;99.90;;;;;;5063888;28;20063;-68
2023/06/05 03:09:13;;;;;;;19.05;7.75;;;11.00;99.90;;;;;;5064538;28;20104;-69
2023/06/05 03:11:38;;;;;;;22.08;8.85;;;11.00;99.90;;;;;;5063660;28;20053;-68
2023/06/05 03:14:05;;;;;;;18.67;7.93;;;11.00;99.90;;;;;;5064059;28;20108;-67
2023/06/05 03:16:33;;;;;;;16.50;7.60;;;11.00;99.90;;;;;;5063322;28;20013;-67
2023/06/05 03:18:58;;;;;;;18.90;8.48;;;11.00;99.90;;;;;;5064053;28;20021;-68
2023/06/05 03:21:24;;;;;;;15.88;7.55;;;11.00;99.90;;;;;;5064030;28;20053;-67
2023/06/05 03:23:50;;;;;;;17.08;8.65;;;11.00;99.90;;;;;;5064091;28;20048;-68
2023/06/05 03:26:15;;;;;;;14.95;7.68;;;11.00;99.90;;;;;;5063270;28;20025;-68
2023/06/05 03:28:42;;;;;;;17.15;7.90;;;10.90;99.90;;;;;;5064168;28;20029;-67
2023/06/05 03:31:10;;;;;;;18.50;8.65;;;10.90;99.90;;;;;;5063719;28;20101;-69
2023/06/05 03:33:35;;;;;;;20.40;8.52;;;10.90;99.90;;;;;;5063569;28;20028;-68
2023/06/05 03:36:02;;;;;;;15.38;8.20;;;10.90;99.90;;;;;;5064025;28;20029;-68
2023/06/05 03:38:27;;;;;;;17.88;9.10;;;10.90;99.90;;;;;;5063110;28;20032;-68
2023/06/05 03:40:53;;;;;;;18.10;9.15;;;10.90;99.90;;;;;;5063700;28;20021;-68
2023/06/05 03:43:18;;;;;;;17.88;9.48;;;11.00;99.90;;;;;;5063405;28;20350;-68
2023/06/05 03:45:44;;;;;;;16.58;8.82;;;11.00;99.90;;;;;;5063259;28;20033;-68
2023/06/05 03:48:10;;;;;;;19.58;9.07;;;11.00;99.90;;;;;;5062753;28;20032;-68
2023/06/05 03:50:38;;;;;;;22.77;9.75;;;11.00;99.90;;;;;;5062364;28;20025;-71
2023/06/05 03:53:04;;;;;;;16.05;8.68;;;11.00;99.90;;;;;;5062971;28;20017;-69
2023/06/05 03:55:40;;;;;;;19.83;9.10;;;11.00;99.90;;;;;;5063479;28;20059;-68
2023/06/05 03:58:13;;;;;;;21.65;9.10;;;11.00;99.90;;;;;;5063106;28;20024;-68
2023/06/05 04:00:38;;;;;;;22.85;8.75;;;11.00;99.90;;;;;;5063048;28;20014;-69
2023/06/05 04:03:04;;;;;;;17.60;8.48;;;10.90;99.90;;;;;;5063352;28;20051;-69
2023/06/05 04:05:30;;;;;;;17.38;8.55;;;11.00;99.90;;;;;;5063241;28;20044;-68
2023/06/05 04:07:59;;;;;;;18.48;8.85;;;11.00;99.90;;;;;;5062125;28;20037;-68
2023/06/05 04:10:25;;;;;;;18.67;9.25;;;11.00;99.90;;;;;;5062950;28;20049;-68
2023/06/05 04:12:50;;;;;;;17.63;8.75;;;11.00;99.90;;;;;;5063113;28;20420;-67
2023/06/05 04:15:16;;;;;;;20.35;8.65;;;11.00;99.90;;;;;;5062726;28;20027;-67
2023/06/05 04:17:41;;;;;;;20.50;9.30;;;11.00;99.90;;;;;;5063311;28;20033;-68
2023/06/05 04:20:13;;;;;;;18.42;9.18;;;11.00;99.90;;;;;;5060759;28;20397;-69
2023/06/05 04:22:39;;;;;;;18.88;9.00;;;11.00;99.90;;;;;;5062983;28;20512;-67
2023/06/05 04:25:05;;;;;;;18.25;9.15;;;11.00;99.90;;;;;;5062617;28;20081;-68
2023/06/05 04:27:30;;;;;;;19.20;10.32;;;11.00;99.90;;;;;;5062493;28;20448;-68
2023/06/05 04:29:56;;;;;;;21.25;9.13;;;11.00;99.90;;;;;;5062644;28;20033;-67
2023/06/05 04:32:22;;;;;;;18.02;8.75;;;11.00;99.90;;;;;;5062866;28;20133;-67
2023/06/05 04:34:48;;;;;;;22.15;9.60;;;11.00;99.90;;;;;;5062368;28;20021;-67
2023/06/05 04:37:13;;;;;;;18.98;9.23;;;11.00;99.90;;;;;;5061421;28;20029;-67
2023/06/05 04:39:39;;;;;;;16.73;8.50;;;11.10;99.90;;;;;;5061664;28;20025;-68
2023/06/05 04:42:05;;;;;;;19.23;8.65;;;11.20;99.90;;;;;;5061051;28;20033;-68
2023/06/05 04:44:31;;;;;;;16.25;8.57;;;11.20;99.90;;;;;;5062280;28;20029;-67
2023/06/05 04:46:57;;;;;;;23.20;8.93;;;11.10;99.90;;;;;;5062268;28;20064;-67
2023/06/05 04:49:26;;;;;;;20.40;8.75;;;11.10;99.90;;;;;;5062033;28;20482;-67
2023/06/05 04:51:53;;;;;;;19.27;8.10;;;11.10;99.90;;;;;;5061608;28;20115;-68
2023/06/05 04:54:19;;;;;;;19.65;8.88;;;11.10;99.90;;;;;;5061810;28;20516;-68
2023/06/05 04:56:45;;;;;;;16.63;8.32;;;11.20;99.90;;;;;;5062015;28;20029;-67
2023/06/05 04:59:11;;;;;;;16.42;7.70;;;11.20;99.90;;;;;;5059714;28;20032;-69
2023/06/05 05:01:36;;;;;;;22.13;8.88;;;11.20;99.90;;;;;;5062342;28;20026;-68
2023/06/05 05:04:02;;;;;;;18.48;9.40;;;11.30;99.90;;;;;;5061804;28;20036;-69
2023/06/05 05:06:28;;;;;;;18.90;8.23;;;11.40;99.90;;;;;;5061461;28;20037;-67
2023/06/05 05:08:54;;;;;;;20.40;7.93;;;11.30;99.90;;;;;;5060835;28;20643;-68
2023/06/05 05:11:20;;;;;;;17.50;8.40;;;11.40;99.90;;;;;;5061773;28;20028;-68
2023/06/05 05:13:46;;;;;;;17.67;8.38;;;11.40;99.90;;;;;;5061704;28;20042;-68
2023/06/05 05:16:11;;;;;;;23.73;8.95;;;11.40;99.90;;;;;;5060645;28;20108;-69
2023/06/05 05:18:40;;;;;;;15.38;8.02;;;11.50;99.90;;;;;;5058286;28;20032;-68
2023/06/05 05:21:06;;;;;;;16.30;7.30;;;11.60;99.90;;;;;;5060485;28;20044;-68
2023/06/05 05:23:33;;;;;;;22.92;8.75;;;11.60;99.90;;;;;;5061631;28;20021;-67
2023/06/05 05:25:59;;;;;;;15.82;7.85;;;11.60;99.90;;;;;;5060252;28;20016;-68
2023/06/05 05:28:24;;;;;;;16.15;7.18;;;11.70;99.90;;;;;;5061719;28;20036;-67
2023/06/05 05:30:52;;;;;;;19.73;8.90;;;11.70;99.90;;;;;;5061379;28;20024;-67
2023/06/05 05:33:17;;;;;;;18.50;8.10;;;11.80;99.90;;;;;;5057901;28;20074;-68
2023/06/05 05:35:44;;;;;;;18.38;8.18;;;11.80;99.90;;;;;;5060209;28;20107;-68
2023/06/05 05:38:10;;;;;;;18.05;7.82;;;11.90;99.90;;;;;;5061244;28;20148;-69
2023/06/05 05:40:35;;;;;;;16.80;8.50;;;11.90;99.90;;;;;;5058786;28;20032;-68
2023/06/05 05:43:01;;;;;;;16.60;8.02;;;12.00;99.90;;;;;;5056743;28;20064;-68
2023/06/05 05:45:27;;;;;;;13.95;7.63;;;12.00;99.90;;;;;;5055047;28;20032;-68
2023/06/05 05:47:52;;;;;;;16.58;7.93;;;12.00;99.90;;;;;;5059020;28;20048;-69
2023/06/05 05:50:18;;;;;;;16.02;8.18;;;12.00;99.90;;;;;;5061610;28;20025;-69
2023/06/05 05:52:44;;;;;;;20.98;7.75;;;12.10;99.90;;;;;;5060492;28;20060;-67
2023/06/05 05:55:10;;;;;;;17.15;8.15;;;12.10;99.90;;;;;;5061155;28;20056;-67
2023/06/05 05:57:36;;;;;;;19.95;9.10;;;12.20;99.90;;;;;;5061236;28;20021;-69
2023/06/05 06:00:05;;;;;;;21.38;8.07;;;12.30;99.90;;;;;;5060741;28;20025;-68
2023/06/05 06:02:32;;;;;;;16.35;7.65;;;12.30;99.90;;;;;;5059290;28;20029;-67
2023/06/05 06:04:57;;;;;;;15.80;7.80;;;12.40;99.90;;;;;;5059846;28;20029;-68
2023/06/05 06:07:23;;;;;;;20.35;7.85;;;12.50;99.90;;;;;;5059239;28;20060;-67
2023/06/05 06:09:48;;;;;;;19.45;8.20;;;12.50;99.90;;;;;;5061215;28;20022;-67
2023/06/05 06:12:14;;;;;;;21.27;7.93;;;12.60;99.90;;;;;;5061425;28;20047;-67
2023/06/05 06:14:39;;;;;;;16.95;7.68;;;12.70;99.90;;;;;;5060629;28;20133;-67
2023/06/05 06:17:09;;;;;;;19.00;7.72;;;12.70;99.90;;;;;;5060636;28;20017;-70
2023/06/05 06:19:35;;;;;;;15.20;6.88;;;12.80;99.90;;;;;;5060992;28;20025;-68
2023/06/05 06:22:01;;;;;;;18.88;7.07;;;12.80;99.90;;;;;;5058740;28;20591;-68
2023/06/05 06:24:26;;;;;;;19.80;7.32;;;12.90;99.90;;;;;;5061195;28;20028;-67
2023/06/05 06:26:52;;;;;;;15.63;7.35;;;13.00;99.90;;;;;;5058881;28;20033;-68
2023/06/05 06:29:23;;;;;;;16.50;7.10;;;13.00;99.90;;;;;;5059570;28;20101;-69
2023/06/05 06:31:49;;;;;;;23.10;7.25;;;13.10;99.90;;;;;;5060829;28;20093;-68
2023/06/05 06:34:18;;;;;;;14.60;7.05;;;13.20;99.90;;;;;;5059617;28;20029;-67
2023/06/05 06:36:46;;;;;;;18.58;7.68;;;13.30;99.90;;;;;;5061721;28;20023;-67
2023/06/05 06:39:12;;;;;;;20.33;7.57;;;13.30;99.90;;;;;;5064580;28;20080;-67
2023/06/05 06:41:38;;;;;;;19.98;7.68;;;13.40;99.90;;;;;;5064033;28;20021;-67
2023/06/05 06:44:04;;;;;;;18.80;7.38;;;13.40;99.90;;;;;;5063172;28;20043;-68
2023/06/05 06:46:30;;;;;;;12.48;7.25;;;13.50;99.90;;;;;;5064953;28;20017;-68
2023/06/05 06:48:59;;;;;;;14.35;7.13;;;13.50;99.90;;;;;;5063283;28;20154;-67
2023/06/05 06:51:25;;;;;;;17.83;7.28;;;13.60;99.90;;;;;;5063544;28;20067;-67
2023/06/05 06:53:50;;;;;;;14.25;6.97;;;13.60;99.90;;;;;;5062251;28;20675;-68
2023/06/05 06:56:17;;;;;;;15.40;6.50;;;13.60;99.90;;;;;;5061785;28;20035;-68
2023/06/05 06:58:43;;;;;;;13.98;6.68;;;13.70;99.90;;;;;;5062814;28;20025;-67
2023/06/05 07:01:11;;;;;;;15.65;7.40;;;13.70;99.90;;;;;;5059750;28;20025;-69
2023/06/05 07:03:38;;;;;;;17.02;7.63;;;13.80;99.90;;;;;;5060897;28;20028;-67
2023/06/05 07:06:03;;;;;;;17.77;6.57;;;13.90;99.90;;;;;;5064293;28;20021;-68
2023/06/05 07:08:29;;;;;;;18.10;6.80;;;13.90;99.90;;;;;;5062997;28;20045;-67
2023/06/05 07:10:55;;;;;;;16.42;6.47;;;14.00;99.90;;;;;;5064040;28;20025;-66
2023/06/05 07:13:21;;;;;;;15.93;6.47;;;14.20;99.90;;;;;;5063636;28;20025;-68
2023/06/05 07:15:47;;;;;;;13.15;6.30;;;14.20;99.90;;;;;;5063982;28;20020;-68
2023/06/05 07:18:13;;;;;;;20.83;8.15;;;14.40;99.90;;;;;;5059346;28;20028;-67
2023/06/05 07:20:39;;;;;;;20.08;7.28;;;14.40;99.90;;;;;;5054846;28;20033;-68
2023/06/05 07:23:05;;;;;;;17.65;6.68;;;14.50;99.90;;;;;;5063328;28;20096;-69
2023/06/05 07:25:31;;;;;;;27.52;6.78;;;14.60;99.90;;;;;;5062137;28;20041;-68
2023/06/05 07:27:59;;;;;;;18.73;7.03;;;14.70;99.90;;;;;;5061862;28;20095;-67
2023/06/05 07:30:25;;;;;;;14.40;6.80;;;14.70;99.90;;;;;;5063512;28;20031;-66
2023/06/05 07:32:51;;;;;;;17.52;6.47;;;14.80;99.90;;;;;;5062918;28;20032;-67
2023/06/05 07:35:16;;;;;;;16.65;6.65;;;14.80;99.90;;;;;;5063394;28;20610;-68
2023/06/05 07:37:42;;;;;;;10.98;6.03;;;14.90;99.90;;;;;;5063615;28;20082;-67
2023/06/05 07:40:08;;;;;;;15.07;6.88;;;14.90;99.90;;;;;;5063535;28;20029;-68
2023/06/05 07:42:34;;;;;;;14.25;6.47;;;15.00;99.90;;;;;;5063494;28;20021;-69
2023/06/05 07:45:02;;;;;;;14.73;5.75;;;15.10;99.90;;;;;;5063155;28;20055;-67
2023/06/05 07:47:27;;;;;;;14.30;5.95;;;15.20;99.90;;;;;;5062888;28;20029;-69
2023/06/05 07:50:00;;;;;;;17.23;5.80;;;15.30;99.90;;;;;;5062458;28;20060;-67
2023/06/05 07:52:27;;;;;;;14.88;6.18;;;15.40;99.90;;;;;;5062942;28;20078;-67
2023/06/05 07:54:53;;;;;;;13.77;5.63;;;15.50;99.90;;;;;;5063001;28;20035;-67
2023/06/05 07:57:19;;;;;;;16.45;6.75;;;15.60;99.90;;;;;;5061792;28;20025;-69
2023/06/05 07:59:46;;;;;;;14.02;5.32;;;15.70;99.90;;;;;;5063103;28;20029;-67
2023/06/05 08:02:12;;;;;;;16.67;6.22;;;15.70;99.90;;;;;;5062901;28;20021;-67
2023/06/05 08:04:39;;;;;;;14.60;6.15;;;15.80;99.90;;;;;;5063632;28;20370;-68
2023/06/05 08:07:05;;;;;;;10.38;6.32;;;15.90;99.90;;;;;;5062443;28;20052;-68
2023/06/05 08:09:30;;;;;;;16.45;6.22;;;16.00;99.90;;;;;;5062078;28;20096;-67
2023/06/05 08:11:56;;;;;;;13.02;5.65;;;16.00;99.90;;;;;;5063010;28;20110;-68
2023/06/05 08:14:21;;;;;;;14.15;5.20;;;16.00;99.90;;;;;;5062946;28;20033;-68
2023/06/05 08:16:47;;;;;;;14.00;5.60;;;16.20;99.90;;;;;;5063122;28;20092;-68
2023/06/05 08:19:12;;;;;;;13.23;5.20;;;16.30;99.90;;;;;;5061414;28;20036;-68
2023/06/05 08:21:38;;;;;;;13.13;5.35;;;16.40;99.90;;;;;;5062519;28;20029;-69
2023/06/05 08:24:04;;;;;;;8.55;5.22;;;16.50;99.90;;;;;;5063277;28;21433;-68
2023/06/05 08:26:30;;;;;;;14.95;5.40;;;16.50;99.90;;;;;;5062869;28;20024;-70
2023/06/05 08:28:55;;;;;;;11.43;5.00;;;16.60;99.90;;;;;;5062735;28;20557;-69
2023/06/05 08:31:22;;;;;;;12.73;4.97;;;16.70;99.90;;;;;;5062348;28;20133;-68
2023/06/05 08:33:47;;;;;;;14.40;5.18;;;16.80;99.90;;;;;;5062461;28;20103;-68
2023/06/05 08:36:13;;;;;;;12.65;5.88;;;16.80;99.90;;;;;;5061794;28;20433;-69
2023/06/05 08:38:38;;;;;;;14.85;5.50;;;16.90;99.90;;;;;;5062008;28;20088;-68
2023/06/05 08:41:07;;;;;;;14.82;5.78;;;16.90;99.90;;;;;;5062395;28;20053;-68
2023/06/05 08:43:37;;;;;;;12.35;5.38;;;17.00;99.90;;;;;;5060620;28;20051;-69
2023/06/05 08:46:09;;;;;;;12.02;4.93;;;17.10;99.90;;;;;;5059132;28;20030;-66
2023/06/05 08:48:45;;;;;;;13.93;5.50;;;17.10;99.90;;;;;;5057760;28;20082;-68
2023/06/05 08:51:13;;;;;;;14.52;5.65;;;17.20;99.90;;;;;;5058648;28;20405;-69
2023/06/05 08:53:42;;;;;;;9.88;5.20;;;17.20;99.90;;;;;;5059286;28;20123;-68
2023/06/05 08:56:08;;;;;;;12.50;5.25;;;17.30;99.90;;;;;;5060300;28;20044;-69
2023/06/05 08:58:35;;;;;;;11.77;4.80;;;17.40;99.90;;;;;;5058402;28;20021;-69
2023/06/05 09:01:01;;;;;;;14.82;5.30;;;17.50;99.90;;;;;;5060623;28;20032;-68
2023/06/05 09:03:27;;;;;;;11.55;5.13;;;17.70;99.90;;;;;;5061905;28;20033;-68
2023/06/05 09:05:53;;;;;;;10.90;4.82;;;17.90;99.90;;;;;;5062203;28;20081;-69
2023/06/05 09:08:33;;;;;;;14.95;4.57;;;18.00;99.90;;;;;;5059832;28;20083;-67
2023/06/05 09:11:25;;;;;;;11.52;4.50;;;18.20;99.90;;;;;;5061117;28;20024;-69
2023/06/05 09:13:51;;;;;;;13.35;4.13;;;18.40;99.90;;;;;;5061128;28;20075;-69
2023/06/05 09:16:21;;;;;;;9.25;4.85;;;18.50;99.90;;;;;;5061250;28;20018;-66
2023/06/05 09:18:55;;;;;;;9.82;4.32;;;18.70;99.90;;;;;;5061120;28;20036;-68
2023/06/05 09:21:21;;;;;;;12.30;4.78;;;18.70;99.90;;;;;;5061404;28;20020;-67
2023/06/05 09:23:47;;;;;;;9.60;4.30;;;18.70;99.90;;;;;;5060929;28;20029;-66
2023/06/05 09:26:15;;;;;;;11.45;5.32;;;18.80;99.90;;;;;;5060453;28;20029;-66
2023/06/05 09:29:02;;;;;;;15.45;4.50;;;18.90;99.90;;;;;;5061044;28;20044;-68
2023/06/05 09:31:42;;;;;;;12.63;4.85;;;19.00;99.90;;;;;;5059812;28;20059;-66
2023/06/05 09:34:07;;;;;;;9.25;5.22;;;19.00;99.90;;;;;;5061719;28;20017;-68
2023/06/05 09:36:34;;;;;;;11.90;5.13;;;19.10;99.90;;;;;;5061581;28;20386;-69
2023/06/05 09:39:14;;;;;;;7.05;4.30;;;19.10;99.90;;;;;;5061346;28;20033;-66
2023/06/05 09:41:44;;;;;;;9.90;4.53;;;19.10;99.90;;;;;;5061765;28;20084;-67
2023/06/05 09:44:10;;;;;;;9.05;4.68;;;19.10;99.90;;;;;;5061694;28;20086;-66
2023/06/05 09:46:58;;;;;;;9.90;3.95;;;19.20;99.90;;;;;;5057142;28;20033;-67
2023/06/05 09:49:27;;;;;;;8.00;4.00;;;19.20;99.90;;;;;;5061323;28;20017;-66
2023/06/05 09:51:52;;;;;;;11.32;4.20;;;19.40;99.90;;;;;;5061000;28;20041;-66
2023/06/05 09:54:22;;;;;;;7.03;4.15;;;19.60;99.90;;;;;;5061111;28;20036;-67
2023/06/05 09:56:48;;;;;;;9.20;4.65;;;19.70;99.90;;;;;;5058460;28;20032;-67
2023/06/05 09:59:22;;;;;;;9.32;4.47;;;19.70;99.90;;;;;;5060486;28;20029;-66
2023/06/05 10:01:50;;;;;;;8.38;4.03;;;19.80;99.90;;;;;;5059568;28;20033;-66
2023/06/05 10:04:18;;;;;;;10.23;4.63;;;19.90;99.90;;;;;;5059428;28;20048;-66
2023/06/05 10:06:45;;;;;;;7.25;4.63;;;20.00;99.90;;;;;;5060327;28;20092;-68
2023/06/05 10:09:11;;;;;;;11.23;4.45;;;20.00;99.90;;;;;;5057912;28;20035;-69
2023/06/05 10:11:39;;;;;;;7.68;4.05;;;20.10;99.90;;;;;;5061652;28;20108;-67
2023/06/05 10:14:05;;;;;;;10.68;4.22;;;20.20;99.90;;;;;;5064018;28;20057;-68
2023/06/05 10:16:31;;;;;;;7.97;3.95;;;20.30;99.90;;;;;;5063841;28;20021;-67
2023/06/05 10:18:59;;;;;;;9.25;4.28;;;20.40;99.90;;;;;;5065066;28;20032;-66
2023/06/05 10:21:25;;;;;;;7.45;4.28;;;20.40;99.90;;;;;;5063852;28;20021;-67
2023/06/05 10:23:56;;;;;;;10.52;3.97;;;20.50;99.90;;;;;;5063335;28;20041;-69
2023/06/05 10:26:46;;;;;;;11.68;3.97;;;20.60;99.90;;;;;;5057701;28;20089;-67
2023/06/05 10:29:42;;;;;;;10.48;4.03;;;20.60;99.90;;;;;;5061958;28;20025;-67
2023/06/05 10:32:39;;;;;;;8.32;3.75;;;20.70;99.90;;;;;;5054997;28;20052;-67
2023/06/05 10:35:27;;;;;;;14.40;4.32;;;20.90;99.90;;;;;;5054880;28;20040;-68
2023/06/05 10:38:20;;;;;;;9.73;4.20;;;21.10;99.90;;;;;;5060487;28;20037;-68
2023/06/05 10:40:53;;;;;;;11.43;4.35;;;21.20;99.90;;;;;;5060385;28;20478;-66
2023/06/05 10:43:47;;;;;;;7.43;3.70;;;21.20;99.90;;;;;;5064647;28;20033;-66
2023/06/05 10:46:31;;;;;;;7.35;3.90;;;21.20;99.90;;;;;;5064935;28;20024;-68
2023/06/05 10:49:19;;;;;;;13.52;4.97;;;21.20;99.90;;;;;;5062581;28;20064;-68
2023/06/05 10:51:51;;;;;;;7.93;3.55;;;21.30;99.90;;;;;;5064398;28;20049;-67
2023/06/05 10:54:23;;;;;;;8.88;4.00;;;21.40;99.90;;;;;;5064087;28;20540;-67
2023/06/05 10:56:59;;;;;;;7.65;3.47;;;21.60;99.90;;;;;;5064120;28;20068;-68
2023/06/05 10:59:39;;;;;;;9.85;3.60;;;21.70;99.90;;;;;;5061498;28;20021;-67
2023/06/05 11:02:14;;;;;;;8.40;4.13;;;21.90;99.90;;;;;;5063608;28;20092;-68
2023/06/05 11:04:46;;;;;;;6.47;3.75;;;22.00;99.90;;;;;;5063165;28;20470;-66
2023/06/05 11:07:21;;;;;;;9.45;4.45;;;22.00;99.90;;;;;;5062970;28;20036;-67
2023/06/05 11:10:02;;;;;;;5.75;3.50;;;21.90;99.90;;;;;;5063338;28;20036;-67
2023/06/05 11:12:50;;;;;;;8.55;4.13;;;22.00;99.90;;;;;;5049718;28;20033;-67
2023/06/05 11:15:36;;;;;;;12.77;4.30;;;22.00;99.90;;;;;;5044811;28;20124;-67
2023/06/05 11:18:30;;;;;;;14.88;3.65;;;22.20;99.90;;;;;;5059794;28;20033;-67
2023/06/05 11:20:56;;;;;;;8.65;3.10;;;22.30;99.90;;;;;;5062614;28;20032;-68
2023/06/05 11:23:27;;;;;;;9.80;3.45;;;22.40;99.90;;;;;;5061913;28;20028;-68
2023/06/05 11:25:56;;;;;;;6.60;3.15;;;22.50;99.90;;;;;;5063103;28;20020;-69
2023/06/05 11:28:42;;;;;;;7.13;3.00;;;22.70;99.90;;;;;;5062917;28;20656;-67
2023/06/05 11:31:07;;;;;;;10.80;3.58;;;22.90;99.90;;;;;;5063420;28;20033;-67
2023/06/05 11:33:34;;;;;;;6.90;3.05;;;23.00;99.90;;;;;;5062546;28;20052;-68
2023/06/05 11:36:03;;;;;;;7.88;3.08;;;23.10;99.90;;;;;;5063301;28;20047;-69
2023/06/05 11:38:28;;;;;;;6.47;3.28;;;23.20;99.90;;;;;;5063352;28;20679;-68
2023/06/05 11:40:57;;;;;;;7.28;3.30;;;23.40;99.90;;;;;;5063863;28;20048;-69
2023/06/05 11:43:23;;;;;;;8.98;3.25;;;23.40;99.90;;;;;;5063003;28;20032;-68
2023/06/05 11:45:55;;;;;;;9.60;3.47;;;23.50;99.90;;;;;;5062142;28;20033;-69
2023/06/05 11:48:21;;;;;;;5.35;3.25;;;23.50;99.90;;;;;;5061842;28;20047;-69
2023/06/05 11:50:58;;;;;;;8.00;3.80;;;23.60;99.90;;;;;;5062933;28;20017;-67
2023/06/05 11:53:24;;;;;;;5.13;3.00;;;23.70;99.90;;;;;;5060359;28;20029;-68
2023/06/05 11:56:05;;;;;;;6.03;3.30;;;23.80;99.90;;;;;;5059125;28;20025;-68
2023/06/05 11:58:35;;;;;;;7.53;3.08;;;23.70;99.90;;;;;;5059194;28;20029;-70
2023/06/05 12:01:17;;;;;;;7.53;3.38;;;23.70;99.90;;;;;;5058681;28;20029;-68
2023/06/05 12:03:43;;;;;;;7.65;3.45;;;23.70;99.90;;;;;;5058779;28;20297;-68
2023/06/05 12:06:12;;;;;;;16.20;10.63;;;23.80;99.90;;;;;;5056837;28;20031;-70
2023/06/05 12:08:39;;;;;;;5.82;3.30;;;23.90;99.90;;;;;;5060973;28;20051;-69
2023/06/05 12:11:23;;;;;;;6.07;3.38;;;24.10;99.90;;;;;;5061317;28;20047;-69
2023/06/05 12:13:51;;;;;;;6.03;2.92;;;24.30;99.90;;;;;;5062481;28;20025;-68
2023/06/05 12:16:46;;;;;;;6.90;3.20;;;24.50;99.90;;;;;;5062321;28;20043;-69
2023/06/05 12:19:17;;;;;;;6.40;2.97;;;24.60;99.90;;;;;;5063432;28;20033;-68
2023/06/05 12:21:45;;;;;;;8.68;2.80;;;24.70;99.90;;;;;;5062503;28;20050;-68
2023/06/05 12:24:11;;;;;;;5.38;3.10;;;24.80;99.90;;;;;;5062689;28;20029;-68
2023/06/05 12:26:58;;;;;;;6.22;3.00;;;24.90;99.90;;;;;;5063103;28;20037;-67
2023/06/05 12:29:29;;;;;;;5.93;2.95;;;24.90;99.90;;;;;;5062740;28;20031;-67
2023/06/05 12:31:57;;;;;;;6.18;3.03;;;25.00;99.90;;;;;;5062670;28;20036;-68
2023/06/05 12:34:58;;;;;;;5.50;3.15;;;25.00;99.90;;;;;;5062743;28;20096;-68
2023/06/05 12:37:29;;;;;;;5.82;2.70;;;25.00;99.90;;;;;;5023492;28;20025;-68
2023/06/05 12:39:56;;;;;;;6.22;3.00;;;25.00;99.90;;;;;;5057558;28;20079;-69
2023/06/05 12:42:21;;;;;;;6.40;2.70;;;25.00;99.90;;;;;;5062458;28;20051;-68
2023/06/05 12:44:47;;;;;;;7.20;3.08;;;25.00;99.90;;;;;;5062718;28;20025;-68
2023/06/05 12:47:13;;;;;;;5.20;2.30;;;25.00;99.90;;;;;;5062499;28;20060;-69